Time;durP1;ratioP1;P1;durP2;ratioP2;P2;SDS_P1;SDS_P2;PMS_P1;PMS_P2;Temp;Humidity;BMP_temperature;BMP_pressure;BME280_temperature;BME280_humidity;BME280_pressure;Samples;Min_cycle;Max_cycle;Signal;HPM_P1;HPM_P2
2022/08/28 00:04:18;;;;;;;4.88;2.65;;;;;;;;;;10468283;28;20051;-59
2022/08/28 00:09:19;;;;;;;5.03;2.42;;;;;;;;;;10488190;28;20028;-49
2022/08/28 00:14:21;;;;;;;9.13;3.03;;;;;;;;;;10483483;28;20107;-49
2022/08/28 00:19:23;;;;;;;6.70;2.63;;;;;;;;;;10486813;28;20036;-53
2022/08/28 00:24:23;;;;;;;3.45;2.78;;;;;;;;;;10464444;28;20394;-50
2022/08/28 00:29:24;;;;;;;4.75;2.78;;;;;;;;;;10481756;28;20036;-52
2022/08/28 00:34:27;;;;;;;9.45;2.13;;;;;;;;;;10475002;28;20127;-48
2022/08/28 00:39:27;;;;;;;3.28;2.50;;;;;;;;;;10479751;28;20032;-50
2022/08/28 00:44:29;;;;;;;3.92;2.40;;;;;;;;;;10463067;28;20029;-48
2022/08/28 00:49:44;;;;;;;5.60;2.10;;;;;;;;;;10479960;28;20397;-51
2022/08/28 00:54:55;;;;;;;5.55;2.45;;;;;;;;;;10463509;28;20435;-49
2022/08/28 00:59:56;;;;;;;6.85;1.95;;;;;;;;;;10468043;28;20043;-48
2022/08/28 01:04:56;;;;;;;4.88;2.47;;;;;;;;;;10478566;28;20411;-50
2022/08/28 01:09:58;;;;;;;3.50;2.00;;;;;;;;;;10485897;28;20039;-50
2022/08/28 01:15:02;;;;;;;7.30;2.20;;;;;;;;;;10493180;28;20309;-51
2022/08/28 01:20:10;;;;;;;3.25;2.30;;;;;;;;;;10483876;28;20043;-48
2022/08/28 01:25:13;;;;;;;;;;;;;;;;;;10451317;28;20048;-59
2022/08/28 01:30:20;;;;;;;3.92;2.22;;;;;;;;;;10469381;28;20349;-58
2022/08/28 01:35:26;;;;;;;3.53;1.93;;;;;;;;;;10441155;28;20102;-60
2022/08/28 01:40:34;;;;;;;3.78;2.03;;;;;;;;;;10464735;28;20068;-61
2022/08/28 01:45:36;;;;;;;8.07;2.50;;;;;;;;;;10464561;28;20132;-62
2022/08/28 01:50:38;;;;;;;6.38;2.42;;;;;;;;;;10471284;28;20452;-61
2022/08/28 01:55:39;;;;;;;4.03;2.08;;;;;;;;;;10475188;28;20112;-59
2022/08/28 02:00:39;;;;;;;4.93;1.98;;;;;;;;;;10469298;28;20028;-53
2022/08/28 02:05:40;;;;;;;10.15;2.05;;;;;;;;;;10478907;28;20080;-49
2022/08/28 02:10:42;;;;;;;2.33;1.83;;;;;;;;;;10483403;28;20028;-49
2022/08/28 02:15:44;;;;;;;4.20;1.80;;;;;;;;;;10494644;28;20036;-58
2022/08/28 02:20:45;;;;;;;4.90;1.70;;;;;;;;;;10481927;28;20476;-56
2022/08/28 02:25:45;;;;;;;12.68;2.10;;;;;;;;;;10479070;28;20040;-61
2022/08/28 02:30:46;;;;;;;18.05;2.00;;;;;;;;;;10477885;28;20481;-59
2022/08/28 02:35:48;;;;;;;4.53;2.00;;;;;;;;;;10474096;28;20496;-56
2022/08/28 02:40:48;;;;;;;2.15;1.80;;;;;;;;;;10482504;28;20029;-59
2022/08/28 02:45:49;;;;;;;2.88;1.55;;;;;;;;;;10474450;28;20045;-58
2022/08/28 02:50:49;;;;;;;3.90;1.90;;;;;;;;;;10482255;28;20079;-59
2022/08/28 02:55:50;;;;;;;5.07;1.83;;;;;;;;;;10487936;28;20047;-58
2022/08/28 03:00:52;;;;;;;4.93;1.80;;;;;;;;;;10490332;28;20032;-61
2022/08/28 03:05:54;;;;;;;2.08;1.60;;;;;;;;;;10484205;28;20497;-56
2022/08/28 03:10:55;;;;;;;6.20;1.83;;;;;;;;;;10483261;28;20040;-58
2022/08/28 03:15:56;;;;;;;3.65;1.70;;;;;;;;;;10478431;28;20043;-57
2022/08/28 03:20:57;;;;;;;3.80;1.50;;;;;;;;;;10474124;28;20044;-57
2022/08/28 03:26:04;;;;;;;3.33;1.80;;;;;;;;;;10484089;28;20032;-60
2022/08/28 03:31:12;;;;;;;1.58;1.48;;;;;;;;;;10488812;28;20490;-56
2022/08/28 03:36:20;;;;;;;2.15;1.77;;;;;;;;;;10461398;28;20041;-55
2022/08/28 03:41:23;;;;;;;2.85;1.55;;;;;;;;;;10484910;28;20475;-58
2022/08/28 03:46:25;;;;;;;6.43;1.40;;;;;;;;;;10489451;28;20041;-50
2022/08/28 03:51:30;;;;;;;4.90;1.90;;;;;;;;;;10489089;28;20105;-55
2022/08/28 03:56:31;;;;;;;4.95;1.40;;;;;;;;;;10483081;28;20060;-57
2022/08/28 04:01:32;;;;;;;4.97;1.55;;;;;;;;;;10490619;28;20107;-49
2022/08/28 04:06:32;;;;;;;3.30;1.75;;;;;;;;;;10482057;28;20499;-52
2022/08/28 04:11:40;;;;;;;2.95;1.63;;;;;;;;;;10479801;28;20260;-52
2022/08/28 04:16:41;;;;;;;8.18;1.50;;;;;;;;;;10477569;28;20041;-52
2022/08/28 04:21:41;;;;;;;2.42;1.55;;;;;;;;;;10479769;28;20492;-55
2022/08/28 04:26:42;;;;;;;1.77;1.40;;;;;;;;;;10481520;28;20040;-60
2022/08/28 04:31:43;;;;;;;6.10;1.60;;;;;;;;;;10479242;28;20115;-56
2022/08/28 04:36:45;;;;;;;3.88;1.48;;;;;;;;;;10431679;28;20432;-52
2022/08/28 04:41:45;;;;;;;3.67;1.40;;;;;;;;;;10478127;28;20033;-56
2022/08/28 04:46:46;;;;;;;2.13;1.42;;;;;;;;;;10476396;28;20040;-48
2022/08/28 04:51:47;;;;;;;1.20;1.10;;;;;;;;;;10474484;28;20380;-49
2022/08/28 04:56:47;;;;;;;1.30;1.17;;;;;;;;;;10487514;28;20472;-49
2022/08/28 05:01:48;;;;;;;4.82;1.48;;;;;;;;;;10480818;28;20074;-49
2022/08/28 05:06:49;;;;;;;3.65;1.50;;;;;;;;;;10476950;28;20045;-48
2022/08/28 05:11:51;;;;;;;4.95;1.40;;;;;;;;;;10472830;28;20040;-48
2022/08/28 05:16:52;;;;;;;7.55;1.90;;;;;;;;;;10471916;28;20127;-48
2022/08/28 05:21:54;;;;;;;4.80;1.50;;;;;;;;;;10476391;28;20032;-50
2022/08/28 05:26:55;;;;;;;9.63;1.92;;;;;;;;;;10478704;28;20028;-48
2022/08/28 05:31:55;;;;;;;1.95;1.38;;;;;;;;;;10473289;28;20040;-48
2022/08/28 05:36:56;;;;;;;2.17;1.42;;;;;;;;;;10468118;28;20442;-50
2022/08/28 05:41:57;;;;;;;15.93;1.95;;;;;;;;;;10475326;28;20097;-48
2022/08/28 05:46:58;;;;;;;4.20;1.30;;;;;;;;;;10474751;28;20031;-48
2022/08/28 05:52:07;;;;;;;7.63;1.45;;;;;;;;;;10480077;28;20263;-48
2022/08/28 05:57:08;;;;;;;5.72;1.45;;;;;;;;;;10458167;28;20041;-48
2022/08/28 06:02:08;;;;;;;12.70;1.40;;;;;;;;;;10468034;28;20060;-49
2022/08/28 06:07:11;;;;;;;6.63;2.20;;;;;;;;;;10474571;28;20049;-49
2022/08/28 06:12:11;;;;;;;8.25;4.00;;;;;;;;;;10472828;28;20035;-49
2022/08/28 06:17:12;;;;;;;14.80;4.85;;;;;;;;;;10477065;28;20039;-50
2022/08/28 06:22:13;;;;;;;9.55;5.05;;;;;;;;;;10472673;28;20480;-48
2022/08/28 06:27:14;;;;;;;14.07;5.50;;;;;;;;;;10468798;28;20043;-47
2022/08/28 06:32:15;;;;;;;7.30;4.68;;;;;;;;;;10469628;28;20398;-49
2022/08/28 06:37:15;;;;;;;10.55;4.65;;;;;;;;;;10475066;28;20024;-52
2022/08/28 06:42:16;;;;;;;10.43;4.80;;;;;;;;;;10474782;28;20024;-52
2022/08/28 06:47:16;;;;;;;6.85;4.22;;;;;;;;;;10468019;28;20079;-53
2022/08/28 06:52:17;;;;;;;7.95;4.28;;;;;;;;;;10474564;28;20029;-53
2022/08/28 06:57:18;;;;;;;9.75;5.22;;;;;;;;;;10467841;28;20041;-53
2022/08/28 07:02:20;;;;;;;6.25;4.50;;;;;;;;;;10487898;28;20033;-50
2022/08/28 07:07:20;;;;;;;10.88;4.53;;;;;;;;;;10481839;28;20407;-49
2022/08/28 07:12:21;;;;;;;5.43;4.40;;;;;;;;;;10491085;28;20085;-51
2022/08/28 07:17:21;;;;;;;12.80;4.78;;;;;;;;;;10484575;28;20029;-50
2022/08/28 07:22:22;;;;;;;9.00;4.15;;;;;;;;;;10477144;28;20032;-54
2022/08/28 07:27:24;;;;;;;6.82;5.03;;;;;;;;;;10481180;28;20040;-49
2022/08/28 07:32:24;;;;;;;9.15;4.75;;;;;;;;;;10479626;28;20534;-49
2022/08/28 07:37:25;;;;;;;6.93;4.53;;;;;;;;;;10480234;28;20044;-49
2022/08/28 07:47:45;;;;;;;9.27;4.70;;;;;;;;;;10488731;28;20024;-51
2022/08/28 07:52:45;;;;;;;4.97;4.20;;;;;;;;;;10486796;28;20024;-49
2022/08/28 07:57:48;;;;;;;8.95;3.85;;;;;;;;;;10493502;28;20499;-49
2022/08/28 08:02:49;;;;;;;5.32;4.40;;;;;;;;;;10481452;28;20078;-49
2022/08/28 08:07:49;;;;;;;5.07;3.97;;;;;;;;;;10480786;28;20052;-56
2022/08/28 08:12:51;;;;;;;7.57;4.25;;;;;;;;;;10481201;28;20040;-59
2022/08/28 08:17:51;;;;;;;5.75;4.15;;;;;;;;;;10486096;28;20028;-53
2022/08/28 08:22:52;;;;;;;8.93;4.25;;;;;;;;;;10489508;28;20025;-61
2022/08/28 08:27:53;;;;;;;5.07;4.22;;;;;;;;;;10478308;28;20029;-58
2022/08/28 08:32:53;;;;;;;5.38;4.03;;;;;;;;;;10479388;28;20070;-54
2022/08/28 08:37:54;;;;;;;4.65;3.97;;;;;;;;;;10479144;28;20035;-57
2022/08/28 08:42:55;;;;;;;7.90;4.13;;;;;;;;;;10493248;28;20024;-60
2022/08/28 08:47:56;;;;;;;4.57;3.83;;;;;;;;;;10460302;28;20033;-60
2022/08/28 08:53:17;;;;;;;7.65;4.10;;;;;;;;;;10479216;28;20029;-54
2022/08/28 08:58:40;;;;;;;5.78;4.50;;;;;;;;;;10491721;28;20070;-49
2022/08/28 09:04:08;;;;;;;11.25;4.95;;;;;;;;;;10490821;28;20213;-52
2022/08/28 09:09:40;;;;;;;11.13;5.55;;;;;;;;;;10468610;28;20043;-56
2022/08/28 09:15:31;;;;;;;16.25;6.25;;;;;;;;;;10473533;28;20020;-49
2022/08/28 09:20:32;;;;;;;12.50;5.90;;;;;;;;;;10360234;28;20084;-50
2022/08/28 09:25:53;;;;;;;15.52;5.82;;;;;;;;;;10357282;28;20034;-49
2022/08/28 09:31:18;;;;;;;11.95;5.30;;;;;;;;;;10351512;28;20034;-50
2022/08/28 09:36:28;;;;;;;10.68;5.00;;;;;;;;;;10352352;28;20038;-49
2022/08/28 09:46:50;;;;;;;9.30;4.97;;;;;;;;;;10358474;28;20030;-52
2022/08/28 09:51:51;;;;;;;7.60;4.50;;;;;;;;;;10474249;28;20064;-50
2022/08/28 09:56:53;;;;;;;7.47;5.00;;;;;;;;;;10489645;28;20157;-49
2022/08/28 10:02:29;;;;;;;5.45;4.40;;;;;;;;;;10471249;28;20028;-51
2022/08/28 10:07:45;;;;;;;5.15;4.22;;;;;;;;;;10474084;28;20506;-54
2022/08/28 10:13:07;;;;;;;10.48;4.85;;;;;;;;;;10473355;28;20663;-55
2022/08/28 10:18:31;;;;;;;5.10;4.20;;;;;;;;;;10475347;28;20104;-59
2022/08/28 10:24:04;;;;;;;5.70;4.47;;;;;;;;;;10488890;28;20032;-59
2022/08/28 10:29:23;;;;;;;7.82;4.63;;;;;;;;;;10486685;28;20173;-60
2022/08/28 10:34:49;;;;;;;6.40;4.30;;;;;;;;;;10490080;28;20169;-62
2022/08/28 10:40:01;;;;;;;5.82;4.28;;;;;;;;;;10485742;28;20473;-61
2022/08/28 10:45:24;;;;;;;6.18;4.70;;;;;;;;;;10476020;28;20024;-62
2022/08/28 10:51:00;;;;;;;7.30;4.60;;;;;;;;;;10493505;28;20040;-62
2022/08/28 10:56:12;;;;;;;7.90;4.68;;;;;;;;;;10492155;28;20072;-62
2022/08/28 11:01:35;;;;;;;7.28;4.55;;;;;;;;;;10475879;28;20067;-62
2022/08/28 11:06:44;;;;;;;8.68;4.72;;;;;;;;;;10494520;28;20438;-56
2022/08/28 11:11:47;;;;;;;6.07;4.22;;;;;;;;;;10477358;28;20040;-62
2022/08/28 11:16:48;;;;;;;5.78;4.32;;;;;;;;;;10494820;28;20451;-63
2022/08/28 11:22:12;;;;;;;5.25;4.47;;;;;;;;;;10474308;28;20116;-62
2022/08/28 11:27:26;;;;;;;7.00;4.60;;;;;;;;;;10475809;28;20025;-54
2022/08/28 11:32:30;;;;;;;5.97;4.22;;;;;;;;;;10475622;28;20067;-54
2022/08/28 11:37:44;;;;;;;7.25;4.70;;;;;;;;;;10488065;28;20491;-56
2022/08/28 11:42:48;;;;;;;13.13;5.00;;;;;;;;;;10488686;28;20028;-48
2022/08/28 11:47:55;;;;;;;10.77;5.05;;;;;;;;;;10485732;28;20511;-48
2022/08/28 11:54:02;;;;;;;7.22;4.63;;;;;;;;;;10471905;28;20032;-49
2022/08/28 11:59:33;;;;;;;;;;;;;;;;;;10313110;28;20121;-48
2022/08/28 12:04:41;;;;;;;11.20;4.50;;;;;;;;;;10321091;28;19922;-48
2022/08/28 12:09:46;;;;;;;8.43;4.78;;;;;;;;;;10302257;28;20051;-61
2022/08/28 12:14:46;;;;;;;8.15;4.28;;;;;;;;;;10300865;28;20050;-59
2022/08/28 12:20:31;;;;;;;6.47;4.47;;;;;;;;;;10321444;28;20049;-54
2022/08/28 12:25:39;;;;;;;6.50;4.38;;;;;;;;;;10283393;28;21135;-55
2022/08/28 12:31:04;;;;;;;4.68;4.10;;;;;;;;;;10477243;28;20115;-59
2022/08/28 12:36:14;;;;;;;8.00;4.22;;;;;;;;;;10480701;28;20735;-59
2022/08/28 12:41:16;;;;;;;5.75;4.43;;;;;;;;;;10489726;28;20051;-60
2022/08/28 12:46:31;;;;;;;6.15;4.28;;;;;;;;;;10489467;28;20105;-59
2022/08/28 12:51:35;;;;;;;6.30;3.97;;;;;;;;;;10486513;28;20031;-62
2022/08/28 12:56:37;;;;;;;7.28;4.60;;;;;;;;;;10468245;28;20153;-56
2022/08/28 13:01:38;;;;;;;8.93;4.25;;;;;;;;;;10470352;28;20021;-54
2022/08/28 13:06:39;;;;;;;8.02;4.13;;;;;;;;;;10468692;28;20370;-48
2022/08/28 13:11:48;;;;;;;11.13;4.00;;;;;;;;;;10487205;28;20036;-55
2022/08/28 13:16:48;;;;;;;7.50;3.85;;;;;;;;;;10476559;28;20043;-62
2022/08/28 13:22:08;;;;;;;9.70;3.67;;;;;;;;;;10488702;28;20035;-49
2022/08/28 13:27:20;;;;;;;7.82;3.53;;;;;;;;;;10475936;28;20488;-61
2022/08/28 13:32:21;;;;;;;9.88;4.07;;;;;;;;;;10488198;28;20376;-51
2022/08/28 13:37:58;;;;;;;5.05;3.58;;;;;;;;;;10477644;28;20051;-49
2022/08/28 13:43:05;;;;;;;9.70;3.80;;;;;;;;;;10489558;28;20064;-50
2022/08/28 13:48:07;;;;;;;7.50;3.60;;;;;;;;;;10487367;28;20056;-61
2022/08/28 13:53:08;;;;;;;6.13;3.80;;;;;;;;;;10481501;28;20117;-61
2022/08/28 13:58:09;;;;;;;4.47;3.20;;;;;;;;;;10485449;28;20119;-63
2022/08/28 14:08:29;;;;;;;6.82;3.08;;;;;;;;;;10485830;28;20044;-60
2022/08/28 14:13:30;;;;;;;11.93;4.00;;;;;;;;;;10483989;28;20028;-58
2022/08/28 14:18:31;;;;;;;5.05;3.38;;;;;;;;;;10488207;28;20192;-61
2022/08/28 14:23:32;;;;;;;4.82;3.63;;;;;;;;;;10489248;28;20024;-59
2022/08/28 14:28:33;;;;;;;5.47;3.45;;;;;;;;;;10475757;28;20111;-62
2022/08/28 14:33:34;;;;;;;4.72;3.42;;;;;;;;;;10405322;28;20046;-62
2022/08/28 14:38:34;;;;;;;5.25;3.08;;;;;;;;;;10403682;28;20029;-58
2022/08/28 14:43:35;;;;;;;7.07;3.47;;;;;;;;;;10404219;28;20397;-60
2022/08/28 14:48:36;;;;;;;8.95;3.28;;;;;;;;;;10393802;28;20033;-61
2022/08/28 14:53:36;;;;;;;6.32;3.17;;;;;;;;;;10397745;28;20465;-58
2022/08/28 14:58:37;;;;;;;6.47;3.25;;;;;;;;;;10405933;28;20030;-59
2022/08/28 15:03:38;;;;;;;4.60;3.17;;;;;;;;;;10405697;28;20079;-56
2022/08/28 15:08:40;;;;;;;4.50;3.05;;;;;;;;;;10405068;28;20049;-58
2022/08/28 15:13:42;;;;;;;4.85;3.35;;;;;;;;;;10405477;28;20034;-56
2022/08/28 15:18:44;;;;;;;5.32;3.20;;;;;;;;;;10406410;28;20026;-57
2022/08/28 15:23:45;;;;;;;6.43;3.20;;;;;;;;;;10412228;28;20068;-60
2022/08/28 15:28:45;;;;;;;3.10;2.72;;;;;;;;;;10412545;28;20029;-55
2022/08/28 15:33:46;;;;;;;3.40;3.10;;;;;;;;;;10396071;28;20022;-54
2022/08/28 15:44:06;;;;;;;4.80;2.95;;;;;;;;;;10397755;28;20072;-52
2022/08/28 15:49:07;;;;;;;5.03;3.22;;;;;;;;;;10412047;28;20021;-49
2022/08/28 15:54:09;;;;;;;8.02;3.28;;;;;;;;;;10398531;28;20121;-54
2022/08/28 15:59:10;;;;;;;7.88;3.30;;;;;;;;;;10412696;28;20033;-52
2022/08/28 16:04:12;;;;;;;3.92;3.13;;;;;;;;;;10411767;28;20029;-53
2022/08/28 16:09:13;;;;;;;4.10;3.03;;;;;;;;;;10411354;28;20033;-52
2022/08/28 16:14:14;;;;;;;4.20;3.50;;;;;;;;;;10392538;28;20116;-51
2022/08/28 16:19:14;;;;;;;4.32;3.15;;;;;;;;;;10411582;28;20103;-50
2022/08/28 16:24:15;;;;;;;4.47;3.60;;;;;;;;;;10392442;28;20018;-50
2022/08/28 16:29:16;;;;;;;4.07;3.10;;;;;;;;;;10409502;28;20021;-50
2022/08/28 16:34:17;;;;;;;4.22;2.90;;;;;;;;;;10409898;28;20033;-52
2022/08/28 16:39:18;;;;;;;5.80;2.70;;;;;;;;;;10410128;28;20040;-51
2022/08/28 16:44:20;;;;;;;4.90;3.05;;;;;;;;;;10410565;28;20029;-50
2022/08/28 16:49:22;;;;;;;6.03;3.70;;;;;;;;;;10396517;28;20029;-48
2022/08/28 16:54:23;;;;;;;3.53;2.83;;;;;;;;;;10400225;28;20053;-52
2022/08/28 16:59:23;;;;;;;3.78;2.95;;;;;;;;;;10408788;28;20033;-49
2022/08/28 17:04:24;;;;;;;4.35;2.92;;;;;;;;;;10408380;28;20056;-52
2022/08/28 17:09:25;;;;;;;3.35;3.03;;;;;;;;;;10408623;28;20017;-48
2022/08/28 17:14:25;;;;;;;4.28;3.25;;;;;;;;;;10408694;28;20033;-53
2022/08/28 17:19:27;;;;;;;3.42;2.65;;;;;;;;;;10408049;28;20036;-51
2022/08/28 17:24:28;;;;;;;4.55;3.00;;;;;;;;;;10408308;28;20030;-50
2022/08/28 17:29:28;;;;;;;4.80;2.78;;;;;;;;;;10407226;28;20064;-50
2022/08/28 17:34:29;;;;;;;4.55;2.72;;;;;;;;;;10408525;28;20473;-54
2022/08/28 17:39:30;;;;;;;3.83;2.80;;;;;;;;;;10395529;28;20041;-57
2022/08/28 17:44:30;;;;;;;5.35;2.78;;;;;;;;;;10406384;28;20021;-61
2022/08/28 17:49:31;;;;;;;4.35;3.17;;;;;;;;;;10405655;28;20026;-62
2022/08/28 17:54:32;;;;;;;3.88;3.22;;;;;;;;;;10405964;28;20037;-54
2022/08/28 17:59:32;;;;;;;2.85;2.65;;;;;;;;;;10406472;28;20039;-51
2022/08/28 18:04:34;;;;;;;3.97;3.22;;;;;;;;;;10408002;28;20045;-57
2022/08/28 18:09:35;;;;;;;3.80;3.00;;;;;;;;;;10405786;28;20521;-60
2022/08/28 18:14:37;;;;;;;5.65;3.40;;;;;;;;;;10407013;28;20097;-59
2022/08/28 18:19:38;;;;;;;9.15;3.65;;;;;;;;;;10406027;28;20037;-54
2022/08/28 18:24:40;;;;;;;10.90;3.95;;;;;;;;;;10405610;28;20100;-50
2022/08/28 18:29:40;;;;;;;7.43;3.88;;;;;;;;;;10406583;28;20381;-50
2022/08/28 18:34:41;;;;;;;11.82;3.90;;;;;;;;;;10407098;28;20029;-49
2022/08/28 18:39:42;;;;;;;11.35;3.88;;;;;;;;;;10405635;28;20084;-51
2022/08/28 18:44:42;;;;;;;8.40;3.83;;;;;;;;;;10406277;28;20112;-50
2022/08/28 18:49:44;;;;;;;9.38;4.03;;;;;;;;;;10406431;28;20034;-52
2022/08/28 18:54:44;;;;;;;5.68;3.47;;;;;;;;;;10409675;28;20462;-50
2022/08/28 18:59:45;;;;;;;10.82;4.10;;;;;;;;;;10413993;28;20129;-53
2022/08/28 19:04:46;;;;;;;10.25;4.35;;;;;;;;;;10412775;28;20052;-50
2022/08/28 19:09:47;;;;;;;8.85;3.53;;;;;;;;;;10414012;28;20029;-51
2022/08/28 19:14:54;;;;;;;9.60;3.65;;;;;;;;;;10413631;28;20136;-52
2022/08/28 19:19:54;;;;;;;9.43;4.00;;;;;;;;;;10413141;28;20037;-49
2022/08/28 19:24:55;;;;;;;8.88;3.67;;;;;;;;;;10411886;28;20047;-55
2022/08/28 19:29:56;;;;;;;5.47;3.47;;;;;;;;;;10412047;28;20021;-50
2022/08/28 19:34:58;;;;;;;8.57;3.67;;;;;;;;;;10412799;28;20032;-51
2022/08/28 19:39:59;;;;;;;5.68;3.22;;;;;;;;;;10411947;28;20056;-52
2022/08/28 19:45:00;;;;;;;6.07;3.80;;;;;;;;;;10412776;28;20103;-53
2022/08/28 19:50:00;;;;;;;4.28;3.30;;;;;;;;;;10411008;28;20095;-60
2022/08/28 19:55:04;;;;;;;5.35;3.33;;;;;;;;;;10403802;28;20025;-61
2022/08/28 20:00:05;;;;;;;8.00;3.45;;;;;;;;;;10404934;28;20065;-50
2022/08/28 20:05:07;;;;;;;10.27;2.72;;;;;;;;;;10405505;28;20041;-54
2022/08/28 20:10:09;;;;;;;3.45;1.70;;;;;;;;;;10407907;28;20408;-51
2022/08/28 20:15:12;;;;;;;2.90;1.80;;;;;;;;;;10410322;28;20366;-51
2022/08/28 20:20:13;;;;;;;6.60;2.20;;;;;;;;;;10409494;28;20029;-51
2022/08/28 20:25:14;;;;;;;2.20;1.50;;;;;;;;;;10409927;28;20087;-60
2022/08/28 20:30:15;;;;;;;3.95;1.60;;;;;;;;;;10410017;28;20017;-55
2022/08/28 20:35:17;;;;;;;7.95;2.17;;;;;;;;;;10409522;28;20064;-53
2022/08/28 20:40:19;;;;;;;3.80;2.10;;;;;;;;;;10409913;28;20048;-52
2022/08/28 20:45:20;;;;;;;3.78;1.73;;;;;;;;;;10391138;28;20037;-51
2022/08/28 20:50:21;;;;;;;7.35;2.45;;;;;;;;;;10406113;28;20424;-60
2022/08/28 20:55:21;;;;;;;8.43;2.05;;;;;;;;;;10408864;28;20083;-60
2022/08/28 21:00:22;;;;;;;5.13;2.42;;;;;;;;;;10408846;28;20033;-60
2022/08/28 21:05:23;;;;;;;5.80;1.98;;;;;;;;;;10409946;28;20497;-58
2022/08/28 21:10:23;;;;;;;4.78;2.05;;;;;;;;;;10408335;28;20121;-61
2022/08/28 21:15:24;;;;;;;6.15;2.20;;;;;;;;;;10410362;28;20025;-58
2022/08/28 21:20:25;;;;;;;4.00;1.60;;;;;;;;;;10407590;28;20045;-61
2022/08/28 21:25:26;;;;;;;4.07;1.98;;;;;;;;;;10409276;28;20025;-59
2022/08/28 21:30:27;;;;;;;6.00;2.35;;;;;;;;;;10409577;28;20029;-61
2022/08/28 21:35:27;;;;;;;4.10;1.95;;;;;;;;;;10408857;28;20029;-55
2022/08/28 21:40:28;;;;;;;3.53;2.00;;;;;;;;;;10411822;28;20036;-51
2022/08/28 21:45:29;;;;;;;4.22;2.20;;;;;;;;;;10398712;28;20470;-50
2022/08/28 21:50:29;;;;;;;5.93;2.08;;;;;;;;;;10404661;28;20080;-49
2022/08/28 21:55:30;;;;;;;3.35;1.70;;;;;;;;;;10408449;28;20473;-49
2022/08/28 22:00:30;;;;;;;3.40;1.75;;;;;;;;;;10408132;28;20504;-50
2022/08/28 22:05:31;;;;;;;6.00;2.10;;;;;;;;;;10401063;28;20424;-50
2022/08/28 22:10:32;;;;;;;2.35;1.85;;;;;;;;;;10395701;28;20485;-49
2022/08/28 22:15:33;;;;;;;3.67;1.70;;;;;;;;;;10408734;28;20496;-57
2022/08/28 22:23:08;;;;;;;8.10;1.70;;;;;;;;;;10408081;28;20052;-60
2022/08/28 22:25:56;;;;;;;3.17;1.50;;;;;;;;;;10404980;28;20516;-58
2022/08/28 22:30:57;;;;;;;2.22;1.70;;;;;;;;;;10413946;28;20037;-59
2022/08/28 22:35:58;;;;;;;3.13;1.80;;;;;;;;;;10415603;28;20127;-59
2022/08/28 22:40:58;;;;;;;3.03;1.95;;;;;;;;;;10409522;28;20436;-58
2022/08/28 22:45:59;;;;;;;3.55;2.05;;;;;;;;;;10407347;28;20040;-60
2022/08/28 22:51:08;;;;;;;3.33;1.83;;;;;;;;;;10412961;28;20037;-61
2022/08/28 22:56:10;;;;;;;5.63;2.05;;;;;;;;;;10413492;28;20055;-60
2022/08/28 23:01:18;;;;;;;3.60;1.60;;;;;;;;;;10415045;28;20029;-59
2022/08/28 23:06:20;;;;;;;3.13;1.90;;;;;;;;;;10413970;28;20045;-60
2022/08/28 23:11:22;;;;;;;3.92;1.70;;;;;;;;;;10415010;28;20025;-49
2022/08/28 23:16:22;;;;;;;2.47;1.58;;;;;;;;;;10412984;28;20044;-52
2022/08/28 23:21:25;;;;;;;3.20;1.73;;;;;;;;;;10412724;28;20030;-48
2022/08/28 23:26:25;;;;;;;1.40;1.30;;;;;;;;;;10412328;28;20029;-52
2022/08/28 23:31:26;;;;;;;3.53;1.83;;;;;;;;;;10412334;28;20079;-49
2022/08/28 23:36:27;;;;;;;2.17;1.95;;;;;;;;;;10413125;28;20087;-52
2022/08/28 23:41:27;;;;;;;5.45;1.70;;;;;;;;;;10406242;28;20025;-49
2022/08/28 23:46:28;;;;;;;6.80;1.60;;;;;;;;;;10413238;28;20362;-51
2022/08/28 23:51:29;;;;;;;2.95;1.67;;;;;;;;;;10408355;28;20029;-48
2022/08/28 23:56:30;;;;;;;1.85;1.50;;;;;;;;;;10410812;28;20042;-52
